sensor_id;sensor_type;location;lat;lon;timestamp;P1;durP1;ratioP1;P2;durP2;ratioP2
37791;SDS011;29527;55.766;37.570;2022-10-19T00:00:19;2.30;;;0.73;;
37791;SDS011;29527;55.766;37.570;2022-10-19T00:02:45;1.17;;;0.90;;
37791;SDS011;29527;55.766;37.570;2022-10-19T00:05:10;1.75;;;0.55;;
37791;SDS011;29527;55.766;37.570;2022-10-19T00:07:36;1.20;;;0.98;;
37791;SDS011;29527;55.766;37.570;2022-10-19T00:10:02;0.95;;;0.70;;
37791;SDS011;29527;55.766;37.570;2022-10-19T00:12:28;2.08;;;0.75;;
37791;SDS011;29527;55.766;37.570;2022-10-19T00:14:54;0.98;;;0.75;;
37791;SDS011;29527;55.766;37.570;2022-10-19T00:17:19;1.70;;;0.70;;
37791;SDS011;29527;55.766;37.570;2022-10-19T00:19:45;3.03;;;0.70;;
37791;SDS011;29527;55.766;37.570;2022-10-19T00:22:10;2.65;;;0.90;;
37791;SDS011;29527;55.766;37.570;2022-10-19T00:24:36;0.95;;;0.70;;
37791;SDS011;29527;55.766;37.570;2022-10-19T00:27:01;1.95;;;0.85;;
37791;SDS011;29527;55.766;37.570;2022-10-19T00:29:27;1.95;;;0.80;;
37791;SDS011;29527;55.766;37.570;2022-10-19T00:31:52;2.78;;;0.90;;
37791;SDS011;29527;55.766;37.570;2022-10-19T00:34:17;2.35;;;0.93;;
37791;SDS011;29527;55.766;37.570;2022-10-19T00:36:43;1.20;;;0.82;;
37791;SDS011;29527;55.766;37.570;2022-10-19T00:39:13;2.33;;;0.80;;
37791;SDS011;29527;55.766;37.570;2022-10-19T00:41:40;1.40;;;0.90;;
37791;SDS011;29527;55.766;37.570;2022-10-19T00:46:43;3.10;;;1.00;;
37791;SDS011;29527;55.766;37.570;2022-10-19T00:49:15;2.72;;;0.80;;
37791;SDS011;29527;55.766;37.570;2022-10-19T00:52:18;1.65;;;0.60;;
37791;SDS011;29527;55.766;37.570;2022-10-19T00:54:42;1.42;;;0.73;;
37791;SDS011;29527;55.766;37.570;2022-10-19T00:57:10;1.92;;;0.75;;
37791;SDS011;29527;55.766;37.570;2022-10-19T00:59:37;1.38;;;0.80;;
37791;SDS011;29527;55.766;37.570;2022-10-19T01:02:04;2.78;;;0.70;;
37791;SDS011;29527;55.766;37.570;2022-10-19T01:04:31;1.98;;;0.80;;
37791;SDS011;29527;55.766;37.570;2022-10-19T01:06:59;1.50;;;0.60;;
37791;SDS011;29527;55.766;37.570;2022-10-19T01:09:27;0.70;;;0.65;;
37791;SDS011;29527;55.766;37.570;2022-10-19T01:33:59;1.27;;;0.65;;
37791;SDS011;29527;55.766;37.570;2022-10-19T01:45:01;3.13;;;0.80;;
37791;SDS011;29527;55.766;37.570;2022-10-19T01:47:38;1.15;;;0.70;;
37791;SDS011;29527;55.766;37.570;2022-10-19T01:50:12;2.10;;;0.80;;
37791;SDS011;29527;55.766;37.570;2022-10-19T01:52:42;0.70;;;0.50;;
37791;SDS011;29527;55.766;37.570;2022-10-19T01:55:08;1.27;;;0.90;;
37791;SDS011;29527;55.766;37.570;2022-10-19T01:57:38;2.13;;;0.82;;
37791;SDS011;29527;55.766;37.570;2022-10-19T02:00:19;1.30;;;0.80;;
37791;SDS011;29527;55.766;37.570;2022-10-19T02:02:48;2.35;;;0.80;;
37791;SDS011;29527;55.766;37.570;2022-10-19T02:05:18;1.80;;;0.85;;
37791;SDS011;29527;55.766;37.570;2022-10-19T02:07:50;1.35;;;0.93;;
37791;SDS011;29527;55.766;37.570;2022-10-19T02:10:20;1.15;;;0.60;;
37791;SDS011;29527;55.766;37.570;2022-10-19T02:12:46;1.05;;;0.55;;
37791;SDS011;29527;55.766;37.570;2022-10-19T02:15:14;2.67;;;0.70;;
37791;SDS011;29527;55.766;37.570;2022-10-19T02:17:45;3.10;;;0.65;;
37791;SDS011;29527;55.766;37.570;2022-10-19T02:20:14;1.13;;;0.70;;
37791;SDS011;29527;55.766;37.570;2022-10-19T02:22:40;0.90;;;0.50;;
37791;SDS011;29527;55.766;37.570;2022-10-19T02:25:06;1.40;;;0.70;;
37791;SDS011;29527;55.766;37.570;2022-10-19T02:27:33;1.00;;;0.50;;
37791;SDS011;29527;55.766;37.570;2022-10-19T02:30:01;1.10;;;0.80;;
37791;SDS011;29527;55.766;37.570;2022-10-19T02:32:28;1.38;;;0.90;;
37791;SDS011;29527;55.766;37.570;2022-10-19T02:34:54;1.48;;;0.75;;
37791;SDS011;29527;55.766;37.570;2022-10-19T02:37:19;1.20;;;0.57;;
37791;SDS011;29527;55.766;37.570;2022-10-19T02:39:45;0.90;;;0.60;;
37791;SDS011;29527;55.766;37.570;2022-10-19T02:44:54;0.68;;;0.45;;
37791;SDS011;29527;55.766;37.570;2022-10-19T02:47:30;2.83;;;0.73;;
37791;SDS011;29527;55.766;37.570;2022-10-19T02:50:00;1.58;;;0.80;;
37791;SDS011;29527;55.766;37.570;2022-10-19T02:52:28;2.83;;;0.68;;
37791;SDS011;29527;55.766;37.570;2022-10-19T02:54:54;2.95;;;0.80;;
37791;SDS011;29527;55.766;37.570;2022-10-19T02:57:21;1.95;;;0.80;;
37791;SDS011;29527;55.766;37.570;2022-10-19T02:59:48;2.45;;;0.90;;
37791;SDS011;29527;55.766;37.570;2022-10-19T03:02:14;0.77;;;0.77;;
37791;SDS011;29527;55.766;37.570;2022-10-19T03:04:41;0.73;;;0.50;;
37791;SDS011;29527;55.766;37.570;2022-10-19T03:07:10;3.72;;;0.90;;
37791;SDS011;29527;55.766;37.570;2022-10-19T03:09:41;1.40;;;0.80;;
37791;SDS011;29527;55.766;37.570;2022-10-19T03:12:07;2.97;;;1.00;;
37791;SDS011;29527;55.766;37.570;2022-10-19T03:14:33;2.45;;;1.10;;
37791;SDS011;29527;55.766;37.570;2022-10-19T03:16:59;2.05;;;1.10;;
37791;SDS011;29527;55.766;37.570;2022-10-19T03:19:24;2.00;;;0.90;;
37791;SDS011;29527;55.766;37.570;2022-10-19T03:21:50;1.05;;;0.85;;
37791;SDS011;29527;55.766;37.570;2022-10-19T03:24:15;3.50;;;0.75;;
37791;SDS011;29527;55.766;37.570;2022-10-19T03:26:41;1.00;;;0.80;;
37791;SDS011;29527;55.766;37.570;2022-10-19T03:29:06;1.85;;;0.73;;
37791;SDS011;29527;55.766;37.570;2022-10-19T03:31:32;2.95;;;0.52;;
37791;SDS011;29527;55.766;37.570;2022-10-19T03:33:58;2.47;;;0.65;;
37791;SDS011;29527;55.766;37.570;2022-10-19T03:36:24;2.30;;;0.50;;
37791;SDS011;29527;55.766;37.570;2022-10-19T03:38:52;1.52;;;0.70;;
37791;SDS011;29527;55.766;37.570;2022-10-19T03:41:19;1.15;;;0.70;;
37791;SDS011;29527;55.766;37.570;2022-10-19T03:43:45;1.25;;;0.80;;
37791;SDS011;29527;55.766;37.570;2022-10-19T03:46:11;1.45;;;0.82;;
37791;SDS011;29527;55.766;37.570;2022-10-19T03:48:36;2.92;;;0.90;;
37791;SDS011;29527;55.766;37.570;2022-10-19T03:51:03;1.42;;;1.13;;
37791;SDS011;29527;55.766;37.570;2022-10-19T03:53:30;2.28;;;1.60;;
37791;SDS011;29527;55.766;37.570;2022-10-19T03:56:15;6.55;;;2.30;;
37791;SDS011;29527;55.766;37.570;2022-10-19T03:58:43;4.80;;;3.33;;
37791;SDS011;29527;55.766;37.570;2022-10-19T04:01:10;5.72;;;3.40;;
37791;SDS011;29527;55.766;37.570;2022-10-19T04:03:38;5.22;;;3.45;;
37791;SDS011;29527;55.766;37.570;2022-10-19T04:06:04;5.03;;;3.25;;
37791;SDS011;29527;55.766;37.570;2022-10-19T04:08:32;7.25;;;3.63;;
37791;SDS011;29527;55.766;37.570;2022-10-19T04:10:58;5.28;;;3.72;;
37791;SDS011;29527;55.766;37.570;2022-10-19T04:13:25;5.88;;;3.55;;
37791;SDS011;29527;55.766;37.570;2022-10-19T04:15:51;5.22;;;3.67;;
37791;SDS011;29527;55.766;37.570;2022-10-19T04:18:16;6.63;;;3.40;;
37791;SDS011;29527;55.766;37.570;2022-10-19T04:20:41;4.55;;;3.53;;
37791;SDS011;29527;55.766;37.570;2022-10-19T04:23:08;4.47;;;2.97;;
37791;SDS011;29527;55.766;37.570;2022-10-19T04:25:33;7.05;;;3.97;;
37791;SDS011;29527;55.766;37.570;2022-10-19T04:27:58;6.07;;;3.83;;
37791;SDS011;29527;55.766;37.570;2022-10-19T04:30:24;7.55;;;4.13;;
37791;SDS011;29527;55.766;37.570;2022-10-19T04:32:49;7.80;;;5.22;;
37791;SDS011;29527;55.766;37.570;2022-10-19T04:35:15;8.88;;;7.53;;
37791;SDS011;29527;55.766;37.570;2022-10-19T04:37:40;8.93;;;6.97;;
37791;SDS011;29527;55.766;37.570;2022-10-19T04:40:06;11.48;;;7.47;;
37791;SDS011;29527;55.766;37.570;2022-10-19T04:42:32;9.57;;;7.47;;
37791;SDS011;29527;55.766;37.570;2022-10-19T04:44:58;13.50;;;8.15;;
37791;SDS011;29527;55.766;37.570;2022-10-19T04:47:23;12.63;;;8.52;;
37791;SDS011;29527;55.766;37.570;2022-10-19T04:49:49;14.32;;;10.63;;
37791;SDS011;29527;55.766;37.570;2022-10-19T04:52:14;14.88;;;10.13;;
37791;SDS011;29527;55.766;37.570;2022-10-19T04:54:39;14.18;;;11.95;;
37791;SDS011;29527;55.766;37.570;2022-10-19T04:57:05;16.42;;;12.70;;
37791;SDS011;29527;55.766;37.570;2022-10-19T04:59:30;17.10;;;12.55;;
37791;SDS011;29527;55.766;37.570;2022-10-19T05:01:56;16.73;;;13.15;;
37791;SDS011;29527;55.766;37.570;2022-10-19T05:04:21;19.50;;;14.10;;
37791;SDS011;29527;55.766;37.570;2022-10-19T05:06:47;21.00;;;13.43;;
37791;SDS011;29527;55.766;37.570;2022-10-19T05:09:12;15.25;;;13.63;;
37791;SDS011;29527;55.766;37.570;2022-10-19T05:11:38;22.80;;;17.25;;
37791;SDS011;29527;55.766;37.570;2022-10-19T05:14:03;20.23;;;16.17;;
37791;SDS011;29527;55.766;37.570;2022-10-19T05:16:28;19.15;;;15.57;;
37791;SDS011;29527;55.766;37.570;2022-10-19T05:18:54;20.05;;;15.50;;
37791;SDS011;29527;55.766;37.570;2022-10-19T05:21:22;18.08;;;15.35;;
37791;SDS011;29527;55.766;37.570;2022-10-19T05:23:52;20.80;;;15.80;;
37791;SDS011;29527;55.766;37.570;2022-10-19T05:26:20;22.80;;;15.10;;
37791;SDS011;29527;55.766;37.570;2022-10-19T05:28:47;16.90;;;12.93;;
37791;SDS011;29527;55.766;37.570;2022-10-19T05:31:15;15.23;;;11.63;;
37791;SDS011;29527;55.766;37.570;2022-10-19T05:33:42;16.35;;;12.90;;
37791;SDS011;29527;55.766;37.570;2022-10-19T05:36:12;15.23;;;11.93;;
37791;SDS011;29527;55.766;37.570;2022-10-19T05:38:46;18.80;;;11.80;;
37791;SDS011;29527;55.766;37.570;2022-10-19T05:41:14;15.68;;;11.23;;
37791;SDS011;29527;55.766;37.570;2022-10-19T05:43:41;16.73;;;10.95;;
37791;SDS011;29527;55.766;37.570;2022-10-19T05:46:08;15.02;;;10.98;;
37791;SDS011;29527;55.766;37.570;2022-10-19T05:48:36;15.07;;;10.00;;
37791;SDS011;29527;55.766;37.570;2022-10-19T05:51:03;15.00;;;9.75;;
37791;SDS011;29527;55.766;37.570;2022-10-19T05:53:30;12.57;;;8.45;;
37791;SDS011;29527;55.766;37.570;2022-10-19T05:55:56;13.82;;;8.57;;
37791;SDS011;29527;55.766;37.570;2022-10-19T05:58:22;14.70;;;8.73;;
37791;SDS011;29527;55.766;37.570;2022-10-19T06:00:52;12.77;;;8.38;;
37791;SDS011;29527;55.766;37.570;2022-10-19T06:03:19;12.63;;;8.75;;
37791;SDS011;29527;55.766;37.570;2022-10-19T06:05:46;11.85;;;9.27;;
37791;SDS011;29527;55.766;37.570;2022-10-19T06:08:12;13.55;;;9.52;;
37791;SDS011;29527;55.766;37.570;2022-10-19T06:10:38;11.98;;;6.30;;
37791;SDS011;29527;55.766;37.570;2022-10-19T06:13:03;8.60;;;6.38;;
37791;SDS011;29527;55.766;37.570;2022-10-19T06:15:31;8.13;;;5.70;;
37791;SDS011;29527;55.766;37.570;2022-10-19T06:17:57;8.30;;;5.68;;
37791;SDS011;29527;55.766;37.570;2022-10-19T06:20:23;6.95;;;5.78;;
37791;SDS011;29527;55.766;37.570;2022-10-19T06:22:48;5.95;;;5.30;;
37791;SDS011;29527;55.766;37.570;2022-10-19T06:25:14;7.68;;;5.60;;
37791;SDS011;29527;55.766;37.570;2022-10-19T06:27:39;6.75;;;4.80;;
37791;SDS011;29527;55.766;37.570;2022-10-19T06:30:05;8.93;;;5.90;;
37791;SDS011;29527;55.766;37.570;2022-10-19T06:32:30;7.57;;;6.13;;
37791;SDS011;29527;55.766;37.570;2022-10-19T06:34:57;8.05;;;5.90;;
37791;SDS011;29527;55.766;37.570;2022-10-19T06:37:23;8.82;;;6.40;;
37791;SDS011;29527;55.766;37.570;2022-10-19T06:39:48;7.85;;;6.40;;
37791;SDS011;29527;55.766;37.570;2022-10-19T06:42:14;7.65;;;6.53;;
37791;SDS011;29527;55.766;37.570;2022-10-19T06:44:39;9.30;;;7.22;;
37791;SDS011;29527;55.766;37.570;2022-10-19T06:47:05;8.48;;;6.50;;
37791;SDS011;29527;55.766;37.570;2022-10-19T06:49:30;10.10;;;6.80;;
37791;SDS011;29527;55.766;37.570;2022-10-19T06:51:56;8.05;;;6.63;;
37791;SDS011;29527;55.766;37.570;2022-10-19T06:54:21;10.82;;;6.95;;
37791;SDS011;29527;55.766;37.570;2022-10-19T06:56:49;9.60;;;7.53;;
37791;SDS011;29527;55.766;37.570;2022-10-19T06:59:14;11.13;;;7.95;;
37791;SDS011;29527;55.766;37.570;2022-10-19T07:01:41;10.20;;;7.47;;
37791;SDS011;29527;55.766;37.570;2022-10-19T07:04:07;9.85;;;8.23;;
37791;SDS011;29527;55.766;37.570;2022-10-19T07:06:32;12.80;;;8.98;;
37791;SDS011;29527;55.766;37.570;2022-10-19T07:08:58;10.98;;;8.30;;
37791;SDS011;29527;55.766;37.570;2022-10-19T07:11:23;13.85;;;8.27;;
37791;SDS011;29527;55.766;37.570;2022-10-19T07:13:49;12.38;;;9.05;;
37791;SDS011;29527;55.766;37.570;2022-10-19T07:16:17;10.80;;;8.27;;
37791;SDS011;29527;55.766;37.570;2022-10-19T07:18:43;9.80;;;8.00;;
37791;SDS011;29527;55.766;37.570;2022-10-19T07:21:10;9.75;;;8.02;;
37791;SDS011;29527;55.766;37.570;2022-10-19T07:23:38;12.13;;;7.65;;
37791;SDS011;29527;55.766;37.570;2022-10-19T07:26:06;10.38;;;6.95;;
37791;SDS011;29527;55.766;37.570;2022-10-19T07:28:38;9.52;;;7.38;;
37791;SDS011;29527;55.766;37.570;2022-10-19T07:31:09;9.85;;;6.53;;
37791;SDS011;29527;55.766;37.570;2022-10-19T07:33:36;9.65;;;6.70;;
37791;SDS011;29527;55.766;37.570;2022-10-19T07:36:03;7.40;;;6.55;;
37791;SDS011;29527;55.766;37.570;2022-10-19T07:38:31;8.85;;;6.50;;
37791;SDS011;29527;55.766;37.570;2022-10-19T07:41:00;13.48;;;7.00;;
37791;SDS011;29527;55.766;37.570;2022-10-19T07:43:30;10.73;;;7.78;;
37791;SDS011;29527;55.766;37.570;2022-10-19T07:46:00;11.45;;;6.95;;
37791;SDS011;29527;55.766;37.570;2022-10-19T07:48:27;10.88;;;7.25;;
37791;SDS011;29527;55.766;37.570;2022-10-19T07:50:53;8.45;;;7.53;;
37791;SDS011;29527;55.766;37.570;2022-10-19T07:53:18;11.73;;;7.32;;
37791;SDS011;29527;55.766;37.570;2022-10-19T07:55:44;10.55;;;7.38;;
37791;SDS011;29527;55.766;37.570;2022-10-19T07:58:09;8.52;;;6.28;;
37791;SDS011;29527;55.766;37.570;2022-10-19T08:00:34;13.55;;;7.47;;
37791;SDS011;29527;55.766;37.570;2022-10-19T08:03:00;10.07;;;7.15;;
37791;SDS011;29527;55.766;37.570;2022-10-19T08:05:25;10.45;;;7.32;;
37791;SDS011;29527;55.766;37.570;2022-10-19T08:07:51;10.20;;;7.90;;
37791;SDS011;29527;55.766;37.570;2022-10-19T08:10:16;14.70;;;7.63;;
37791;SDS011;29527;55.766;37.570;2022-10-19T08:12:42;11.13;;;7.63;;
37791;SDS011;29527;55.766;37.570;2022-10-19T08:15:07;9.63;;;6.90;;
37791;SDS011;29527;55.766;37.570;2022-10-19T08:17:34;9.73;;;7.05;;
37791;SDS011;29527;55.766;37.570;2022-10-19T08:20:01;13.25;;;8.35;;
37791;SDS011;29527;55.766;37.570;2022-10-19T08:22:28;11.95;;;8.88;;
37791;SDS011;29527;55.766;37.570;2022-10-19T08:24:54;15.23;;;8.93;;
37791;SDS011;29527;55.766;37.570;2022-10-19T08:27:19;11.40;;;8.73;;
37791;SDS011;29527;55.766;37.570;2022-10-19T08:29:45;11.93;;;8.80;;
37791;SDS011;29527;55.766;37.570;2022-10-19T08:32:10;13.57;;;9.25;;
37791;SDS011;29527;55.766;37.570;2022-10-19T08:34:36;14.10;;;9.38;;
37791;SDS011;29527;55.766;37.570;2022-10-19T08:37:01;10.48;;;8.43;;
37791;SDS011;29527;55.766;37.570;2022-10-19T08:39:27;14.18;;;9.23;;
37791;SDS011;29527;55.766;37.570;2022-10-19T08:42:04;11.63;;;8.77;;
37791;SDS011;29527;55.766;37.570;2022-10-19T08:47:54;11.18;;;8.38;;
37791;SDS011;29527;55.766;37.570;2022-10-19T08:50:26;11.75;;;9.07;;
37791;SDS011;29527;55.766;37.570;2022-10-19T08:53:01;12.18;;;7.88;;
37791;SDS011;29527;55.766;37.570;2022-10-19T08:55:33;11.40;;;8.88;;
37791;SDS011;29527;55.766;37.570;2022-10-19T08:58:16;13.98;;;9.52;;
37791;SDS011;29527;55.766;37.570;2022-10-19T09:00:58;11.27;;;9.02;;
37791;SDS011;29527;55.766;37.570;2022-10-19T09:03:30;12.55;;;9.00;;
37791;SDS011;29527;55.766;37.570;2022-10-19T09:08:58;12.80;;;9.68;;
37791;SDS011;29527;55.766;37.570;2022-10-19T09:11:26;14.75;;;9.45;;
37791;SDS011;29527;55.766;37.570;2022-10-19T09:16:53;13.57;;;8.55;;
37791;SDS011;29527;55.766;37.570;2022-10-19T09:19:24;11.73;;;9.50;;
37791;SDS011;29527;55.766;37.570;2022-10-19T09:21:57;11.90;;;9.70;;
37791;SDS011;29527;55.766;37.570;2022-10-19T09:24:29;12.48;;;9.43;;
37791;SDS011;29527;55.766;37.570;2022-10-19T09:27:15;10.85;;;8.50;;
37791;SDS011;29527;55.766;37.570;2022-10-19T09:30:09;12.88;;;8.85;;
37791;SDS011;29527;55.766;37.570;2022-10-19T09:32:39;13.20;;;9.10;;
37791;SDS011;29527;55.766;37.570;2022-10-19T09:35:11;11.00;;;8.27;;
37791;SDS011;29527;55.766;37.570;2022-10-19T09:37:43;12.15;;;8.00;;
37791;SDS011;29527;55.766;37.570;2022-10-19T09:40:30;13.02;;;8.25;;
37791;SDS011;29527;55.766;37.570;2022-10-19T09:42:57;10.30;;;7.90;;
37791;SDS011;29527;55.766;37.570;2022-10-19T09:48:31;11.65;;;8.60;;
37791;SDS011;29527;55.766;37.570;2022-10-19T09:50:58;10.45;;;8.68;;
37791;SDS011;29527;55.766;37.570;2022-10-19T09:53:26;9.73;;;8.50;;
37791;SDS011;29527;55.766;37.570;2022-10-19T09:55:56;11.30;;;8.23;;
37791;SDS011;29527;55.766;37.570;2022-10-19T09:58:25;10.45;;;7.28;;
37791;SDS011;29527;55.766;37.570;2022-10-19T10:00:53;12.85;;;8.10;;
37791;SDS011;29527;55.766;37.570;2022-10-19T10:05:57;10.38;;;7.40;;
37791;SDS011;29527;55.766;37.570;2022-10-19T10:08:28;9.15;;;5.45;;
37791;SDS011;29527;55.766;37.570;2022-10-19T10:10:58;8.13;;;5.60;;
37791;SDS011;29527;55.766;37.570;2022-10-19T10:13:35;6.85;;;5.50;;
37791;SDS011;29527;55.766;37.570;2022-10-19T10:16:02;7.07;;;5.35;;
37791;SDS011;29527;55.766;37.570;2022-10-19T10:18:31;8.50;;;5.00;;
37791;SDS011;29527;55.766;37.570;2022-10-19T10:23:30;8.50;;;4.57;;
37791;SDS011;29527;55.766;37.570;2022-10-19T10:25:59;4.95;;;4.43;;
37791;SDS011;29527;55.766;37.570;2022-10-19T10:28:27;8.13;;;4.72;;
37791;SDS011;29527;55.766;37.570;2022-10-19T10:30:54;6.22;;;4.22;;
37791;SDS011;29527;55.766;37.570;2022-10-19T10:33:28;6.85;;;4.63;;
37791;SDS011;29527;55.766;37.570;2022-10-19T10:35:55;7.93;;;4.60;;
37791;SDS011;29527;55.766;37.570;2022-10-19T10:38:26;6.10;;;4.70;;
37791;SDS011;29527;55.766;37.570;2022-10-19T10:40:55;6.30;;;4.63;;
37791;SDS011;29527;55.766;37.570;2022-10-19T10:43:28;6.97;;;4.85;;
37791;SDS011;29527;55.766;37.570;2022-10-19T10:45:59;9.10;;;4.72;;
37791;SDS011;29527;55.766;37.570;2022-10-19T10:48:31;6.15;;;5.55;;
37791;SDS011;29527;55.766;37.570;2022-10-19T10:51:01;5.47;;;4.93;;
37791;SDS011;29527;55.766;37.570;2022-10-19T10:53:37;6.75;;;5.32;;
37791;SDS011;29527;55.766;37.570;2022-10-19T10:58:59;6.80;;;5.18;;
37791;SDS011;29527;55.766;37.570;2022-10-19T11:01:32;5.00;;;4.50;;
37791;SDS011;29527;55.766;37.570;2022-10-19T11:04:05;7.63;;;5.87;;
37791;SDS011;29527;55.766;37.570;2022-10-19T11:06:38;6.72;;;5.20;;
37791;SDS011;29527;55.766;37.570;2022-10-19T11:09:09;6.95;;;5.60;;
37791;SDS011;29527;55.766;37.570;2022-10-19T11:11:45;7.20;;;5.60;;
37791;SDS011;29527;55.766;37.570;2022-10-19T11:17:04;7.30;;;5.18;;
37791;SDS011;29527;55.766;37.570;2022-10-19T11:19:36;8.57;;;5.93;;
37791;SDS011;29527;55.766;37.570;2022-10-19T11:30:19;6.63;;;5.32;;
37791;SDS011;29527;55.766;37.570;2022-10-19T11:47:15;4.70;;;3.45;;
37791;SDS011;29527;55.766;37.570;2022-10-19T11:57:44;7.47;;;5.60;;
37791;SDS011;29527;55.766;37.570;2022-10-19T12:00:19;6.00;;;5.40;;
37791;SDS011;29527;55.766;37.570;2022-10-19T12:02:54;9.20;;;5.65;;
37791;SDS011;29527;55.766;37.570;2022-10-19T12:05:32;7.68;;;5.85;;
37791;SDS011;29527;55.766;37.570;2022-10-19T12:08:12;6.70;;;5.95;;
37791;SDS011;29527;55.766;37.570;2022-10-19T12:13:17;7.38;;;5.93;;
37791;SDS011;29527;55.766;37.570;2022-10-19T12:15:51;8.55;;;5.00;;
37791;SDS011;29527;55.766;37.570;2022-10-19T12:18:31;6.82;;;5.65;;
37791;SDS011;29527;55.766;37.570;2022-10-19T12:21:13;8.10;;;4.68;;
37791;SDS011;29527;55.766;37.570;2022-10-19T12:23:53;6.43;;;4.70;;
37791;SDS011;29527;55.766;37.570;2022-10-19T12:26:21;8.55;;;4.88;;
37791;SDS011;29527;55.766;37.570;2022-10-19T12:28:52;8.35;;;5.53;;
37791;SDS011;29527;55.766;37.570;2022-10-19T12:31:22;10.75;;;5.57;;
37791;SDS011;29527;55.766;37.570;2022-10-19T12:39:11;8.95;;;6.00;;
37791;SDS011;29527;55.766;37.570;2022-10-19T12:41:55;10.20;;;6.35;;
37791;SDS011;29527;55.766;37.570;2022-10-19T12:57:59;9.50;;;5.90;;
37791;SDS011;29527;55.766;37.570;2022-10-19T13:00:31;7.90;;;5.60;;
37791;SDS011;29527;55.766;37.570;2022-10-19T13:06:05;9.57;;;4.95;;
37791;SDS011;29527;55.766;37.570;2022-10-19T13:08:42;7.07;;;5.07;;
37791;SDS011;29527;55.766;37.570;2022-10-19T13:11:12;6.55;;;5.00;;
37791;SDS011;29527;55.766;37.570;2022-10-19T13:21:53;7.10;;;4.50;;
37791;SDS011;29527;55.766;37.570;2022-10-19T13:34:53;6.53;;;4.75;;
37791;SDS011;29527;55.766;37.570;2022-10-19T13:37:19;6.60;;;4.75;;
37791;SDS011;29527;55.766;37.570;2022-10-19T13:39:45;11.13;;;5.80;;
37791;SDS011;29527;55.766;37.570;2022-10-19T13:42:21;7.10;;;5.55;;
37791;SDS011;29527;55.766;37.570;2022-10-19T13:44:49;7.47;;;5.28;;
37791;SDS011;29527;55.766;37.570;2022-10-19T13:55:50;8.77;;;5.32;;
37791;SDS011;29527;55.766;37.570;2022-10-19T14:04:05;9.13;;;5.30;;
37791;SDS011;29527;55.766;37.570;2022-10-19T14:06:48;10.48;;;6.00;;
37791;SDS011;29527;55.766;37.570;2022-10-19T14:12:23;11.05;;;5.95;;
37791;SDS011;29527;55.766;37.570;2022-10-19T14:14:50;10.80;;;6.72;;
37791;SDS011;29527;55.766;37.570;2022-10-19T14:17:23;12.45;;;5.38;;
37791;SDS011;29527;55.766;37.570;2022-10-19T14:19:55;9.20;;;5.03;;
37791;SDS011;29527;55.766;37.570;2022-10-19T14:22:24;9.15;;;4.90;;
37791;SDS011;29527;55.766;37.570;2022-10-19T14:24:51;8.85;;;4.95;;
37791;SDS011;29527;55.766;37.570;2022-10-19T14:27:23;6.00;;;3.95;;
37791;SDS011;29527;55.766;37.570;2022-10-19T14:29:50;8.07;;;4.50;;
37791;SDS011;29527;55.766;37.570;2022-10-19T14:32:18;6.32;;;3.92;;
37791;SDS011;29527;55.766;37.570;2022-10-19T14:34:47;7.88;;;4.45;;
37791;SDS011;29527;55.766;37.570;2022-10-19T14:37:23;5.65;;;3.45;;
37791;SDS011;29527;55.766;37.570;2022-10-19T14:39:57;4.57;;;3.40;;
37791;SDS011;29527;55.766;37.570;2022-10-19T14:42:23;5.60;;;3.03;;
37791;SDS011;29527;55.766;37.570;2022-10-19T14:44:49;7.13;;;3.67;;
37791;SDS011;29527;55.766;37.570;2022-10-19T14:47:19;7.80;;;3.38;;
37791;SDS011;29527;55.766;37.570;2022-10-19T14:49:46;8.57;;;4.13;;
37791;SDS011;29527;55.766;37.570;2022-10-19T14:52:14;11.57;;;4.40;;
37791;SDS011;29527;55.766;37.570;2022-10-19T14:54:47;9.18;;;4.05;;
37791;SDS011;29527;55.766;37.570;2022-10-19T14:57:24;6.78;;;4.05;;
37791;SDS011;29527;55.766;37.570;2022-10-19T14:59:55;12.55;;;5.13;;
37791;SDS011;29527;55.766;37.570;2022-10-19T15:02:23;9.65;;;4.30;;
37791;SDS011;29527;55.766;37.570;2022-10-19T15:05:21;9.52;;;4.25;;
37791;SDS011;29527;55.766;37.570;2022-10-19T15:07:51;8.90;;;4.35;;
37791;SDS011;29527;55.766;37.570;2022-10-19T15:12:48;11.50;;;4.53;;
37791;SDS011;29527;55.766;37.570;2022-10-19T15:15:24;9.35;;;4.47;;
37791;SDS011;29527;55.766;37.570;2022-10-19T15:22:48;7.75;;;4.63;;
37791;SDS011;29527;55.766;37.570;2022-10-19T15:27:40;7.97;;;4.60;;
37791;SDS011;29527;55.766;37.570;2022-10-19T15:33:06;9.57;;;5.07;;
37791;SDS011;29527;55.766;37.570;2022-10-19T15:35:38;8.85;;;4.78;;
37791;SDS011;29527;55.766;37.570;2022-10-19T15:40:39;10.00;;;4.68;;
37791;SDS011;29527;55.766;37.570;2022-10-19T15:46:02;8.70;;;4.63;;
37791;SDS011;29527;55.766;37.570;2022-10-19T15:51:33;8.65;;;4.53;;
37791;SDS011;29527;55.766;37.570;2022-10-19T15:53:58;10.93;;;5.22;;
37791;SDS011;29527;55.766;37.570;2022-10-19T15:56:26;7.50;;;4.13;;
37791;SDS011;29527;55.766;37.570;2022-10-19T15:58:54;7.53;;;4.53;;
37791;SDS011;29527;55.766;37.570;2022-10-19T16:01:25;8.55;;;4.50;;
37791;SDS011;29527;55.766;37.570;2022-10-19T16:03:53;6.03;;;3.58;;
37791;SDS011;29527;55.766;37.570;2022-10-19T16:06:20;7.85;;;4.43;;
37791;SDS011;29527;55.766;37.570;2022-10-19T16:08:47;9.38;;;4.32;;
37791;SDS011;29527;55.766;37.570;2022-10-19T16:11:15;9.82;;;4.63;;
37791;SDS011;29527;55.766;37.570;2022-10-19T16:13:42;7.35;;;4.43;;
37791;SDS011;29527;55.766;37.570;2022-10-19T16:16:09;9.77;;;4.60;;
37791;SDS011;29527;55.766;37.570;2022-10-19T16:18:39;9.60;;;4.50;;
37791;SDS011;29527;55.766;37.570;2022-10-19T16:21:04;7.47;;;3.55;;
37791;SDS011;29527;55.766;37.570;2022-10-19T16:23:30;7.93;;;4.18;;
37791;SDS011;29527;55.766;37.570;2022-10-19T16:25:58;9.32;;;4.43;;
37791;SDS011;29527;55.766;37.570;2022-10-19T16:28:24;9.18;;;4.25;;
37791;SDS011;29527;55.766;37.570;2022-10-19T16:30:50;9.52;;;4.38;;
37791;SDS011;29527;55.766;37.570;2022-10-19T16:33:17;6.80;;;4.05;;
37791;SDS011;29527;55.766;37.570;2022-10-19T16:35:42;9.55;;;4.57;;
37791;SDS011;29527;55.766;37.570;2022-10-19T16:38:08;8.63;;;4.53;;
37791;SDS011;29527;55.766;37.570;2022-10-19T16:40:33;8.95;;;4.20;;
37791;SDS011;29527;55.766;37.570;2022-10-19T16:42:59;8.02;;;4.45;;
37791;SDS011;29527;55.766;37.570;2022-10-19T16:45:27;10.30;;;4.95;;
37791;SDS011;29527;55.766;37.570;2022-10-19T16:47:53;10.13;;;4.35;;
37791;SDS011;29527;55.766;37.570;2022-10-19T16:50:18;6.68;;;4.82;;
37791;SDS011;29527;55.766;37.570;2022-10-19T16:52:45;8.57;;;4.47;;
37791;SDS011;29527;55.766;37.570;2022-10-19T16:55:10;9.15;;;5.45;;
37791;SDS011;29527;55.766;37.570;2022-10-19T16:57:37;10.57;;;4.88;;
37791;SDS011;29527;55.766;37.570;2022-10-19T17:00:03;10.05;;;5.07;;
37791;SDS011;29527;55.766;37.570;2022-10-19T17:02:30;9.55;;;5.47;;
37791;SDS011;29527;55.766;37.570;2022-10-19T17:04:55;7.53;;;4.53;;
37791;SDS011;29527;55.766;37.570;2022-10-19T17:07:20;6.07;;;4.45;;
37791;SDS011;29527;55.766;37.570;2022-10-19T17:09:46;7.78;;;4.22;;
37791;SDS011;29527;55.766;37.570;2022-10-19T17:12:11;6.00;;;4.00;;
37791;SDS011;29527;55.766;37.570;2022-10-19T17:14:38;7.55;;;3.83;;
37791;SDS011;29527;55.766;37.570;2022-10-19T17:17:05;7.88;;;3.92;;
37791;SDS011;29527;55.766;37.570;2022-10-19T17:19:31;4.97;;;3.83;;
37791;SDS011;29527;55.766;37.570;2022-10-19T17:21:57;7.65;;;3.67;;
37791;SDS011;29527;55.766;37.570;2022-10-19T17:24:23;4.57;;;3.88;;
37791;SDS011;29527;55.766;37.570;2022-10-19T17:26:50;7.03;;;3.85;;